Time;durP1;ratioP1;P1;durP2;ratioP2;P2;SDS_P1;SDS_P2;PMS_P1;PMS_P2;Temp;Humidity;BMP_temperature;BMP_pressure;BME280_temperature;BME280_humidity;BME280_pressure;Samples;Min_cycle;Max_cycle;Signal;HPM_P1;HPM_P2
2023/04/30 00:02:19;;;;;;;11.57;9.33;;;;;;;;;;5231514;28;20020;-74
2023/04/30 00:04:50;;;;;;;15.50;8.27;;;;;;;;;;5231470;28;20030;-74
2023/04/30 00:07:21;;;;;;;12.73;9.23;;;;;;;;;;5231303;28;20025;-74
2023/04/30 00:09:52;;;;;;;19.13;9.00;;;;;;;;;;5231218;28;20552;-73
2023/04/30 00:12:24;;;;;;;11.30;8.33;;;;;;;;;;5216425;28;20693;-74
2023/04/30 00:14:55;;;;;;;9.50;7.70;;;;;;;;;;5274853;27;20027;-75
2023/04/30 00:17:26;;;;;;;16.33;8.30;;;;;;;;;;5271171;27;20028;-73
2023/04/30 00:19:57;;;;;;;13.37;7.93;;;;;;;;;;5230650;28;20030;-73
2023/04/30 00:22:28;;;;;;;17.63;9.47;;;;;;;;;;5225275;28;20516;-74
2023/04/30 00:25:00;;;;;;;10.77;8.53;;;;;;;;;;5230710;28;20021;-74
2023/04/30 00:27:31;;;;;;;14.07;8.50;;;;;;;;;;5237120;28;20034;-74
2023/04/30 00:30:03;;;;;;;12.77;9.03;;;;;;;;;;5231568;27;20053;-74
2023/04/30 00:32:34;;;;;;;11.53;8.67;;;;;;;;;;5231861;28;20057;-74
2023/04/30 00:35:05;;;;;;;9.90;7.90;;;;;;;;;;5231724;28;20056;-74
2023/04/30 00:37:36;;;;;;;10.93;8.47;;;;;;;;;;5230470;28;20044;-75
2023/04/30 00:40:08;;;;;;;13.50;9.43;;;;;;;;;;5248266;27;20368;-74
2023/04/30 00:42:39;;;;;;;12.10;8.07;;;;;;;;;;5231632;28;20108;-74
2023/04/30 00:45:11;;;;;;;12.03;9.33;;;;;;;;;;5288863;27;20019;-74
2023/04/30 00:47:42;;;;;;;13.10;8.87;;;;;;;;;;5258825;27;20112;-74
2023/04/30 00:50:14;;;;;;;14.30;9.33;;;;;;;;;;5231457;28;20018;-74
2023/04/30 00:52:46;;;;;;;11.00;8.53;;;;;;;;;;5232250;28;20368;-75
2023/04/30 00:55:17;;;;;;;9.93;8.33;;;;;;;;;;5231019;28;20034;-74
2023/04/30 00:57:48;;;;;;;11.50;8.40;;;;;;;;;;5231061;28;20457;-74
2023/04/30 01:00:20;;;;;;;13.23;9.13;;;;;;;;;;5230262;28;20025;-74
2023/04/30 01:02:52;;;;;;;13.43;9.33;;;;;;;;;;5333310;27;20117;-74
2023/04/30 01:05:24;;;;;;;13.27;8.63;;;;;;;;;;5231354;28;20032;-74
2023/04/30 01:07:56;;;;;;;11.90;8.07;;;;;;;;;;5229756;28;20045;-74
2023/04/30 01:10:29;;;;;;;10.80;9.37;;;;;;;;;;5231462;28;20063;-75
2023/04/30 01:13:11;;;;;;;13.47;9.37;;;;;;;;;;5230535;27;20040;-75
2023/04/30 01:15:56;;;;;;;13.63;9.53;;;;;;;;;;5231759;27;20033;-75
2023/04/30 01:18:30;;;;;;;10.30;8.90;;;;;;;;;;5230788;28;20021;-75
2023/04/30 01:21:03;;;;;;;11.15;8.65;;;;;;;;;;5231599;28;20079;-75
2023/04/30 01:23:46;;;;;;;16.50;9.77;;;;;;;;;;5231417;28;20021;-75
2023/04/30 01:26:29;;;;;;;14.33;8.80;;;;;;;;;;5231286;28;20025;-75
2023/04/30 01:29:01;;;;;;;13.30;9.33;;;;;;;;;;5230493;28;20026;-75
2023/04/30 01:31:33;;;;;;;12.63;8.87;;;;;;;;;;5230299;28;20022;-75
2023/04/30 01:34:04;;;;;;;12.30;9.77;;;;;;;;;;5230953;28;20042;-75
2023/04/30 01:36:41;;;;;;;12.07;8.83;;;;;;;;;;5263182;27;20047;-75
2023/04/30 01:39:12;;;;;;;11.43;9.53;;;;;;;;;;5279653;27;20064;-75
2023/04/30 01:41:49;;;;;;;14.45;9.23;;;;;;;;;;5231246;28;20053;-75
2023/04/30 01:44:20;;;;;;;17.37;9.37;;;;;;;;;;5213680;28;20014;-75
2023/04/30 01:47:01;;;;;;;13.70;8.33;;;;;;;;;;5231076;28;20021;-75
2023/04/30 01:49:49;;;;;;;12.63;9.20;;;;;;;;;;5230418;28;20047;-75
2023/04/30 01:52:30;;;;;;;13.20;9.00;;;;;;;;;;5316602;27;20040;-74
2023/04/30 01:55:07;;;;;;;12.03;8.30;;;;;;;;;;5231121;28;20028;-73
2023/04/30 01:57:41;;;;;;;12.63;9.47;;;;;;;;;;5230058;28;20029;-74
2023/04/30 02:00:13;;;;;;;;;;;;;;;;;;5230951;28;20463;-74
2023/04/30 02:02:45;;;;;;;12.23;9.60;;;;;;;;;;5229571;28;19913;-74
2023/04/30 02:05:16;;;;;;;13.20;9.60;;;;;;;;;;5230186;28;20020;-75
2023/04/30 02:07:48;;;;;;;14.97;10.47;;;;;;;;;;5230560;28;20024;-75
2023/04/30 02:10:21;;;;;;;12.90;9.37;;;;;;;;;;5229244;28;20029;-74
2023/04/30 02:12:52;;;;;;;13.97;9.20;;;;;;;;;;5229633;28;20025;-74
2023/04/30 02:15:23;;;;;;;12.90;9.63;;;;;;;;;;5216084;28;20343;-75
2023/04/30 02:17:54;;;;;;;15.03;9.00;;;;;;;;;;5225091;28;20022;-74
2023/04/30 02:20:26;;;;;;;14.67;9.50;;;;;;;;;;5226165;28;20018;-74
2023/04/30 02:22:57;;;;;;;12.03;9.30;;;;;;;;;;5228920;28;20091;-74
2023/04/30 02:25:29;;;;;;;13.43;9.63;;;;;;;;;;5227395;28;20469;-75
2023/04/30 02:28:00;;;;;;;13.03;10.00;;;;;;;;;;5212910;28;20096;-75
2023/04/30 02:30:31;;;;;;;14.53;9.30;;;;;;;;;;5229621;28;20066;-75
2023/04/30 02:33:02;;;;;;;12.97;9.43;;;;;;;;;;5229911;28;20485;-75
2023/04/30 02:35:34;;;;;;;11.60;9.43;;;;;;;;;;5227531;28;20111;-75
2023/04/30 02:38:05;;;;;;;15.60;10.90;;;;;;;;;;5216885;27;20022;-74
2023/04/30 02:40:36;;;;;;;11.53;9.67;;;;;;;;;;5233301;28;20028;-74
2023/04/30 02:43:07;;;;;;;12.23;10.23;;;;;;;;;;5233140;28;20097;-74
2023/04/30 02:45:38;;;;;;;14.80;10.60;;;;;;;;;;5232439;27;20517;-74
2023/04/30 02:48:10;;;;;;;12.17;10.17;;;;;;;;;;5233687;27;20042;-74
2023/04/30 02:50:41;;;;;;;14.17;10.63;;;;;;;;;;5231448;27;20033;-74
2023/04/30 02:53:12;;;;;;;14.93;9.90;;;;;;;;;;5233178;28;21481;-74
2023/04/30 02:55:43;;;;;;;11.23;10.00;;;;;;;;;;5232211;28;20018;-73
2023/04/30 02:58:14;;;;;;;16.90;10.83;;;;;;;;;;5231956;28;20061;-74
2023/04/30 03:00:45;;;;;;;14.73;10.90;;;;;;;;;;5232647;28;20025;-74
2023/04/30 03:03:17;;;;;;;12.47;10.73;;;;;;;;;;5231840;28;20667;-74
2023/04/30 03:05:48;;;;;;;14.67;10.83;;;;;;;;;;5232845;27;20499;-73
2023/04/30 03:08:19;;;;;;;14.13;9.83;;;;;;;;;;5232951;27;20037;-74
2023/04/30 03:10:51;;;;;;;13.37;11.03;;;;;;;;;;5233302;28;20026;-74
2023/04/30 03:13:24;;;;;;;15.37;11.20;;;;;;;;;;5231754;27;20509;-73
2023/04/30 03:15:59;;;;;;;13.80;11.20;;;;;;;;;;5233157;28;20032;-73
2023/04/30 03:18:31;;;;;;;13.80;10.47;;;;;;;;;;5232401;28;20047;-74
2023/04/30 03:21:02;;;;;;;14.43;10.97;;;;;;;;;;5232103;28;20604;-74
2023/04/30 03:23:33;;;;;;;13.97;9.90;;;;;;;;;;5233006;28;20027;-74
2023/04/30 03:26:05;;;;;;;12.40;10.57;;;;;;;;;;5232650;28;20045;-74
2023/04/30 03:28:36;;;;;;;12.17;10.63;;;;;;;;;;5230615;28;20017;-74
2023/04/30 03:31:07;;;;;;;13.37;10.40;;;;;;;;;;5232799;28;20024;-74
2023/04/30 03:33:38;;;;;;;11.87;10.67;;;;;;;;;;5232552;28;20410;-74
2023/04/30 03:36:09;;;;;;;13.37;9.87;;;;;;;;;;5235616;28;20032;-74
2023/04/30 03:38:41;;;;;;;14.23;10.97;;;;;;;;;;5245027;27;20534;-73
2023/04/30 03:41:12;;;;;;;13.73;11.07;;;;;;;;;;5232170;28;20033;-74
2023/04/30 03:43:44;;;;;;;12.20;10.03;;;;;;;;;;5231215;28;20076;-75
2023/04/30 03:46:15;;;;;;;13.03;10.17;;;;;;;;;;5230919;28;20013;-75
2023/04/30 03:48:47;;;;;;;12.43;10.07;;;;;;;;;;5232793;28;20017;-75
2023/04/30 03:51:19;;;;;;;14.30;10.83;;;;;;;;;;5232018;28;20059;-75
2023/04/30 03:53:50;;;;;;;14.23;11.63;;;;;;;;;;5226070;28;20040;-75
2023/04/30 03:56:21;;;;;;;14.73;10.90;;;;;;;;;;5232320;28;20384;-75
2023/04/30 03:58:53;;;;;;;13.03;10.77;;;;;;;;;;5275452;27;20110;-75
2023/04/30 04:01:25;;;;;;;16.07;11.60;;;;;;;;;;5253576;27;20562;-75
2023/04/30 04:03:56;;;;;;;12.87;11.53;;;;;;;;;;5232538;28;20036;-75
2023/04/30 04:06:27;;;;;;;18.00;12.27;;;;;;;;;;5232387;28;20017;-75
2023/04/30 04:08:58;;;;;;;14.87;12.53;;;;;;;;;;5232071;28;20479;-75
2023/04/30 04:11:29;;;;;;;14.57;12.10;;;;;;;;;;5230156;28;20112;-76
2023/04/30 04:14:01;;;;;;;16.00;11.67;;;;;;;;;;5231478;28;20057;-75
2023/04/30 04:16:32;;;;;;;16.97;11.50;;;;;;;;;;5232232;28;20025;-75
2023/04/30 04:19:03;;;;;;;15.03;10.50;;;;;;;;;;5231319;28;20028;-75
2023/04/30 04:21:35;;;;;;;14.03;11.50;;;;;;;;;;5232122;28;20581;-74
2023/04/30 04:24:07;;;;;;;15.37;11.67;;;;;;;;;;5231596;28;20025;-75
2023/04/30 04:26:38;;;;;;;16.23;12.70;;;;;;;;;;5229762;28;20138;-75
2023/04/30 04:29:11;;;;;;;14.30;12.50;;;;;;;;;;5230459;28;20033;-75
2023/04/30 04:31:42;;;;;;;16.03;12.77;;;;;;;;;;5231156;28;20384;-75
2023/04/30 04:34:13;;;;;;;15.53;11.63;;;;;;;;;;5232074;27;20020;-75
2023/04/30 04:36:44;;;;;;;13.57;12.17;;;;;;;;;;5231750;28;20013;-75
2023/04/30 04:39:16;;;;;;;14.47;12.10;;;;;;;;;;5230092;27;20509;-75
2023/04/30 04:41:48;;;;;;;14.27;11.90;;;;;;;;;;5231623;27;20074;-75
2023/04/30 04:44:19;;;;;;;16.87;12.50;;;;;;;;;;5247189;28;20010;-75
2023/04/30 04:46:52;;;;;;;15.23;13.03;;;;;;;;;;5231828;28;20041;-75
2023/04/30 04:49:23;;;;;;;15.50;11.67;;;;;;;;;;5274703;27;20113;-75
2023/04/30 04:51:55;;;;;;;13.37;11.97;;;;;;;;;;5231698;28;20074;-75
2023/04/30 04:54:26;;;;;;;15.07;11.97;;;;;;;;;;5230288;28;20052;-75
2023/04/30 04:56:57;;;;;;;13.47;11.90;;;;;;;;;;5230239;28;20173;-75
2023/04/30 04:59:29;;;;;;;14.30;12.37;;;;;;;;;;5230840;28;20060;-74
2023/04/30 05:02:00;;;;;;;14.77;11.30;;;;;;;;;;5229851;28;20021;-73
2023/04/30 05:04:31;;;;;;;15.97;13.40;;;;;;;;;;5230924;28;20527;-74
2023/04/30 05:07:02;;;;;;;16.53;12.27;;;;;;;;;;5231153;28;20449;-74
2023/04/30 05:09:33;;;;;;;13.83;12.03;;;;;;;;;;5230535;28;20520;-74
2023/04/30 05:12:05;;;;;;;15.03;12.67;;;;;;;;;;5230736;28;20025;-74
2023/04/30 05:14:36;;;;;;;17.07;11.77;;;;;;;;;;5229494;28;20022;-74
2023/04/30 05:17:07;;;;;;;15.37;12.83;;;;;;;;;;5230766;28;20073;-74
2023/04/30 05:19:38;;;;;;;14.83;11.57;;;;;;;;;;5230870;28;20021;-74
2023/04/30 05:22:10;;;;;;;13.73;12.13;;;;;;;;;;5231158;28;20024;-74
2023/04/30 05:24:41;;;;;;;15.10;12.73;;;;;;;;;;5228846;28;20655;-75
2023/04/30 05:27:12;;;;;;;13.43;11.90;;;;;;;;;;5229814;28;20059;-73
2023/04/30 05:29:43;;;;;;;15.23;13.17;;;;;;;;;;5230825;28;20171;-74
2023/04/30 05:32:14;;;;;;;13.97;12.50;;;;;;;;;;5230178;28;20045;-73
2023/04/30 05:34:45;;;;;;;15.60;13.10;;;;;;;;;;5229500;28;20132;-74
2023/04/30 05:37:18;;;;;;;14.80;12.90;;;;;;;;;;5229903;28;20022;-74
2023/04/30 05:39:52;;;;;;;13.93;12.53;;;;;;;;;;5229264;28;20024;-74
2023/04/30 05:42:23;;;;;;;16.08;12.63;;;;;;;;;;5229414;28;20047;-74
2023/04/30 05:44:54;;;;;;;14.43;11.57;;;;;;;;;;5229205;28;20489;-75
2023/04/30 05:47:26;;;;;;;16.40;12.90;;;;;;;;;;5228891;28;20021;-75
2023/04/30 05:49:57;;;;;;;14.40;12.13;;;;;;;;;;5230272;28;20029;-75
2023/04/30 05:52:28;;;;;;;16.10;11.87;;;;;;;;;;5230187;28;20037;-75
2023/04/30 05:54:59;;;;;;;15.03;11.27;;;;;;;;;;5229315;28;20044;-75
2023/04/30 05:57:30;;;;;;;17.47;11.53;;;;;;;;;;5229157;28;20022;-75
2023/04/30 06:00:05;;;;;;;14.20;11.23;;;;;;;;;;5230586;28;20060;-76
2023/04/30 06:02:36;;;;;;;17.45;11.77;;;;;;;;;;5229501;28;20102;-75
2023/04/30 06:05:07;;;;;;;13.17;10.87;;;;;;;;;;5230477;28;20022;-75
2023/04/30 06:07:39;;;;;;;16.33;11.13;;;;;;;;;;5229599;28;20016;-74
2023/04/30 06:10:11;;;;;;;13.40;11.00;;;;;;;;;;5230021;28;20314;-74
2023/04/30 06:12:42;;;;;;;12.20;10.67;;;;;;;;;;5229631;28;20029;-75
2023/04/30 06:15:13;;;;;;;15.10;9.90;;;;;;;;;;5230067;28;20033;-75
2023/04/30 06:17:44;;;;;;;12.77;11.00;;;;;;;;;;5228565;28;20017;-73
2023/04/30 06:20:16;;;;;;;16.07;10.70;;;;;;;;;;5229628;28;20047;-74
2023/04/30 06:22:47;;;;;;;11.90;10.70;;;;;;;;;;5229596;28;20570;-74
2023/04/30 06:25:19;;;;;;;14.50;11.40;;;;;;;;;;5230200;28;20048;-74
2023/04/30 06:27:52;;;;;;;13.83;10.57;;;;;;;;;;5227828;28;20036;-74
2023/04/30 06:30:24;;;;;;;13.37;10.90;;;;;;;;;;5228183;28;20116;-74
2023/04/30 06:32:55;;;;;;;14.27;10.90;;;;;;;;;;5230071;28;20473;-75
2023/04/30 06:35:26;;;;;;;17.97;10.77;;;;;;;;;;5229975;28;20021;-74
2023/04/30 06:37:57;;;;;;;12.73;10.67;;;;;;;;;;5229268;28;20057;-74
2023/04/30 06:40:28;;;;;;;17.10;11.80;;;;;;;;;;5229604;28;20020;-74
2023/04/30 06:42:59;;;;;;;14.73;10.33;;;;;;;;;;5229354;28;20638;-74
2023/04/30 06:45:31;;;;;;;13.50;10.50;;;;;;;;;;5228495;28;20029;-74
2023/04/30 06:48:02;;;;;;;14.23;11.00;;;;;;;;;;5229569;28;20041;-74
2023/04/30 06:50:33;;;;;;;14.23;10.83;;;;;;;;;;5228918;28;20030;-74
2023/04/30 06:53:04;;;;;;;13.97;10.60;;;;;;;;;;5228675;28;20078;-74
2023/04/30 06:55:35;;;;;;;14.17;10.30;;;;;;;;;;5229660;28;20071;-74
2023/04/30 06:58:07;;;;;;;15.47;11.00;;;;;;;;;;5228660;28;20053;-75
2023/04/30 07:00:38;;;;;;;16.00;10.30;;;;;;;;;;5225537;28;20026;-74
2023/04/30 07:03:09;;;;;;;14.10;10.53;;;;;;;;;;5208263;28;20041;-75
2023/04/30 07:05:41;;;;;;;13.10;9.87;;;;;;;;;;5239260;28;20054;-75
2023/04/30 07:08:12;;;;;;;12.13;10.60;;;;;;;;;;5228117;28;20009;-75
2023/04/30 07:10:43;;;;;;;14.53;11.20;;;;;;;;;;5228112;28;20018;-74
2023/04/30 07:13:15;;;;;;;12.40;9.80;;;;;;;;;;5227451;28;20687;-74
2023/04/30 07:15:46;;;;;;;16.30;9.47;;;;;;;;;;5229327;28;20036;-75
2023/04/30 07:18:18;;;;;;;15.83;10.93;;;;;;;;;;5225130;28;20047;-76
2023/04/30 07:20:49;;;;;;;13.43;10.63;;;;;;;;;;5212014;28;20057;-75
2023/04/30 07:23:20;;;;;;;15.00;10.67;;;;;;;;;;5210834;28;20025;-75
2023/04/30 07:25:52;;;;;;;12.73;9.50;;;;;;;;;;5212279;28;20369;-75
2023/04/30 07:28:23;;;;;;;14.07;10.33;;;;;;;;;;5211212;28;20024;-75
2023/04/30 07:30:54;;;;;;;15.80;9.30;;;;;;;;;;5230984;28;20026;-75
2023/04/30 07:33:34;;;;;;;14.67;10.00;;;;;;;;;;5232730;28;20136;-75
2023/04/30 07:36:06;;;;;;;12.93;9.73;;;;;;;;;;5232169;28;20045;-75
2023/04/30 07:38:37;;;;;;;9.87;8.80;;;;;;;;;;5232364;28;20546;-75
2023/04/30 07:41:09;;;;;;;10.77;9.03;;;;;;;;;;5232828;28;20022;-76
2023/04/30 07:43:41;;;;;;;10.43;8.80;;;;;;;;;;5229612;27;20018;-76
2023/04/30 07:46:12;;;;;;;10.40;9.00;;;;;;;;;;5232343;28;20028;-76
2023/04/30 07:48:43;;;;;;;8.80;7.87;;;;;;;;;;5231857;28;20120;-76
2023/04/30 07:51:14;;;;;;;9.70;7.67;;;;;;;;;;5231797;28;20452;-75
2023/04/30 07:53:46;;;;;;;10.40;7.73;;;;;;;;;;5230399;28;20028;-75
2023/04/30 07:56:17;;;;;;;12.07;8.13;;;;;;;;;;5229844;27;20060;-75
2023/04/30 07:58:48;;;;;;;9.00;7.33;;;;;;;;;;5230592;28;20630;-74
2023/04/30 08:01:19;;;;;;;17.42;7.43;;;;;;;;;;5223657;28;20022;-74
2023/04/30 08:03:50;;;;;;;10.55;7.57;;;;;;;;;;5211153;28;20026;-74
2023/04/30 08:06:22;;;;;;;8.05;6.97;;;;;;;;;;5227029;28;20050;-74
2023/04/30 08:08:53;;;;;;;8.82;6.95;;;;;;;;;;5230047;28;20013;-74
2023/04/30 08:11:24;;;;;;;9.40;7.20;;;;;;;;;;5229971;27;20029;-74
2023/04/30 08:13:56;;;;;;;8.20;7.38;;;;;;;;;;5229042;27;20032;-75
2023/04/30 08:16:27;;;;;;;8.85;6.57;;;;;;;;;;5230589;27;20017;-73
2023/04/30 08:18:59;;;;;;;9.98;7.68;;;;;;;;;;5230161;28;20036;-73
2023/04/30 08:21:31;;;;;;;8.68;7.25;;;;;;;;;;5230465;28;20021;-74
2023/04/30 08:24:02;;;;;;;9.00;7.15;;;;;;;;;;5231895;28;20048;-75
2023/04/30 08:26:33;;;;;;;8.18;6.53;;;;;;;;;;5228176;28;20028;-74
2023/04/30 08:29:07;;;;;;;6.72;5.95;;;;;;;;;;5334127;27;20058;-75
2023/04/30 08:31:38;;;;;;;7.25;6.47;;;;;;;;;;5229507;28;20036;-76
2023/04/30 08:34:09;;;;;;;7.25;5.95;;;;;;;;;;5228079;28;20017;-75
2023/04/30 08:36:40;;;;;;;7.63;6.60;;;;;;;;;;5230980;28;20488;-75
2023/04/30 08:39:11;;;;;;;7.22;5.57;;;;;;;;;;5230558;28;20041;-76
2023/04/30 08:41:45;;;;;;;6.68;5.97;;;;;;;;;;5230703;28;20034;-75
2023/04/30 08:44:17;;;;;;;10.18;5.88;;;;;;;;;;5230112;28;20034;-78
2023/04/30 08:46:55;;;;;;;6.35;5.63;;;;;;;;;;5229739;28;20016;-75
2023/04/30 08:49:27;;;;;;;10.38;5.85;;;;;;;;;;5227936;28;20579;-75
2023/04/30 08:52:00;;;;;;;8.35;6.47;;;;;;;;;;5226327;28;20056;-75
2023/04/30 08:54:32;;;;;;;7.28;6.25;;;;;;;;;;5327908;27;20024;-74
2023/04/30 08:57:04;;;;;;;6.90;5.78;;;;;;;;;;5222277;28;20021;-76
2023/04/30 08:59:35;;;;;;;8.75;6.25;;;;;;;;;;5228908;28;20634;-76
2023/04/30 09:02:06;;;;;;;8.80;5.75;;;;;;;;;;5230966;28;20022;-76
2023/04/30 09:04:37;;;;;;;7.22;5.22;;;;;;;;;;5229390;28;20071;-76
2023/04/30 09:07:10;;;;;;;6.90;4.88;;;;;;;;;;5228931;28;20009;-75
2023/04/30 09:09:41;;;;;;;7.20;5.50;;;;;;;;;;5319375;27;20457;-75
2023/04/30 09:12:18;;;;;;;7.75;5.25;;;;;;;;;;5227506;28;20048;-75
2023/04/30 09:14:56;;;;;;;7.78;5.97;;;;;;;;;;5227133;28;20038;-76
2023/04/30 09:17:28;;;;;;;8.13;5.80;;;;;;;;;;5225358;28;20022;-75
2023/04/30 09:20:12;;;;;;;7.82;5.63;;;;;;;;;;5230376;28;20475;-75
2023/04/30 09:22:43;;;;;;;6.30;5.25;;;;;;;;;;5231341;27;20475;-75
2023/04/30 09:25:15;;;;;;;9.13;5.10;;;;;;;;;;5231135;28;20104;-73
2023/04/30 09:27:46;;;;;;;5.47;5.03;;;;;;;;;;5230909;28;20044;-73
2023/04/30 09:30:37;;;;;;;6.45;4.68;;;;;;;;;;5221870;28;20048;-74
2023/04/30 09:33:09;;;;;;;7.85;5.22;;;;;;;;;;5209343;28;20091;-73
2023/04/30 09:35:41;;;;;;;8.68;6.43;;;;;;;;;;5224409;28;20049;-75
2023/04/30 09:38:26;;;;;;;6.97;6.00;;;;;;;;;;5228281;28;20017;-76
2023/04/30 09:40:59;;;;;;;9.95;6.10;;;;;;;;;;5216473;28;20026;-76
2023/04/30 09:43:30;;;;;;;7.30;5.97;;;;;;;;;;5212930;28;20024;-75
2023/04/30 09:46:02;;;;;;;7.28;6.18;;;;;;;;;;5215728;28;20014;-76
2023/04/30 09:48:33;;;;;;;9.02;5.90;;;;;;;;;;5208413;28;20515;-75
2023/04/30 09:51:04;;;;;;;9.73;5.70;;;;;;;;;;5208993;28;20018;-76
2023/04/30 09:53:37;;;;;;;5.80;5.20;;;;;;;;;;5208411;28;20112;-76
2023/04/30 09:56:10;;;;;;;7.22;6.20;;;;;;;;;;5209154;28;20013;-76
2023/04/30 09:58:43;;;;;;;7.07;5.45;;;;;;;;;;5208370;28;20593;-76
2023/04/30 10:01:15;;;;;;;6.75;5.43;;;;;;;;;;5209266;28;20022;-75
2023/04/30 10:03:47;;;;;;;6.20;5.35;;;;;;;;;;5209737;28;20037;-75
2023/04/30 10:06:20;;;;;;;8.55;5.70;;;;;;;;;;5208331;28;20029;-75
2023/04/30 10:08:52;;;;;;;6.10;5.25;;;;;;;;;;5207263;28;20046;-76
2023/04/30 10:11:26;;;;;;;6.03;5.45;;;;;;;;;;5207460;28;20040;-75
2023/04/30 10:14:10;;;;;;;5.82;4.38;;;;;;;;;;5208444;28;20416;-76
2023/04/30 10:16:41;;;;;;;7.05;5.00;;;;;;;;;;5207581;28;20362;-76
2023/04/30 10:19:22;;;;;;;6.30;5.20;;;;;;;;;;5208901;28;20040;-76
2023/04/30 10:21:54;;;;;;;6.35;4.90;;;;;;;;;;5208902;28;20014;-77
2023/04/30 10:24:25;;;;;;;5.72;5.13;;;;;;;;;;5209346;28;20044;-76
2023/04/30 10:26:57;;;;;;;7.82;5.32;;;;;;;;;;5208921;28;20031;-76
2023/04/30 10:29:28;;;;;;;7.55;5.15;;;;;;;;;;5209097;28;20398;-76
2023/04/30 10:32:00;;;;;;;6.68;4.93;;;;;;;;;;5209083;28;20582;-76
2023/04/30 10:34:41;;;;;;;5.65;5.05;;;;;;;;;;5209525;28;20042;-76
2023/04/30 10:37:25;;;;;;;5.75;4.70;;;;;;;;;;5208954;28;20094;-75
2023/04/30 10:39:56;;;;;;;6.40;4.90;;;;;;;;;;5208893;28;20472;-76
2023/04/30 10:42:27;;;;;;;6.68;4.80;;;;;;;;;;5208716;28;20014;-76
2023/04/30 10:45:00;;;;;;;4.88;4.38;;;;;;;;;;5209208;28;20010;-75
2023/04/30 10:47:31;;;;;;;5.45;4.57;;;;;;;;;;5208784;28;20022;-76
2023/04/30 10:50:03;;;;;;;5.68;5.05;;;;;;;;;;5208876;28;20029;-76
2023/04/30 10:52:36;;;;;;;5.60;4.82;;;;;;;;;;5208383;28;20022;-76
2023/04/30 10:55:08;;;;;;;5.55;5.00;;;;;;;;;;5211591;28;20024;-76
2023/04/30 10:57:40;;;;;;;7.88;4.63;;;;;;;;;;5209448;28;20022;-76
2023/04/30 11:00:13;;;;;;;4.72;3.72;;;;;;;;;;5210975;28;20112;-76
2023/04/30 11:02:46;;;;;;;3.83;3.20;;;;;;;;;;5212259;28;20089;-76
2023/04/30 11:05:17;;;;;;;4.32;3.92;;;;;;;;;;5212288;28;20006;-75
2023/04/30 11:07:49;;;;;;;5.10;4.07;;;;;;;;;;5211782;28;20470;-76
2023/04/30 11:10:22;;;;;;;5.63;4.10;;;;;;;;;;5212300;28;20022;-75
2023/04/30 11:12:53;;;;;;;4.43;3.95;;;;;;;;;;5210320;28;20047;-76
2023/04/30 11:15:25;;;;;;;5.00;4.00;;;;;;;;;;5211849;28;20374;-76
2023/04/30 11:17:58;;;;;;;4.75;4.13;;;;;;;;;;5210978;28;20053;-76
2023/04/30 11:20:29;;;;;;;6.53;4.25;;;;;;;;;;5211640;28;20026;-75
2023/04/30 11:23:07;;;;;;;3.92;3.53;;;;;;;;;;5212442;28;20025;-77
2023/04/30 11:25:39;;;;;;;4.60;4.10;;;;;;;;;;5211624;28;20381;-75
2023/04/30 11:28:30;;;;;;;5.25;2.83;;;;;;;;;;5210877;28;20029;-75
2023/04/30 11:31:02;;;;;;;3.20;2.90;;;;;;;;;;5211622;28;20045;-75
2023/04/30 11:33:34;;;;;;;4.50;2.70;;;;;;;;;;5211193;28;20801;-76
2023/04/30 11:36:06;;;;;;;3.42;2.88;;;;;;;;;;5210560;28;20037;-76
2023/04/30 11:38:37;;;;;;;4.80;3.38;;;;;;;;;;5211489;28;20029;-75
2023/04/30 11:41:10;;;;;;;4.13;2.95;;;;;;;;;;5209374;28;20109;-76
2023/04/30 11:43:41;;;;;;;3.90;3.33;;;;;;;;;;5211903;28;20018;-75
2023/04/30 11:46:16;;;;;;;4.47;4.03;;;;;;;;;;5211294;28;20014;-75
2023/04/30 11:48:47;;;;;;;6.43;3.60;;;;;;;;;;5211566;28;20021;-75
2023/04/30 11:51:22;;;;;;;4.25;3.40;;;;;;;;;;5211185;28;20028;-75
2023/04/30 11:53:54;;;;;;;4.93;3.53;;;;;;;;;;5211593;28;20028;-75
2023/04/30 11:56:26;;;;;;;5.78;3.75;;;;;;;;;;5210090;28;20022;-76
2023/04/30 11:58:57;;;;;;;3.30;2.60;;;;;;;;;;5211957;28;20761;-77
2023/04/30 12:01:29;;;;;;;5.50;2.70;;;;;;;;;;5211539;28;20041;-75
2023/04/30 12:04:02;;;;;;;3.00;2.60;;;;;;;;;;5211825;28;20033;-75
2023/04/30 12:06:34;;;;;;;3.72;2.60;;;;;;;;;;5209000;28;20021;-76
2023/04/30 12:09:08;;;;;;;4.07;3.67;;;;;;;;;;5211642;28;20688;-76
2023/04/30 12:11:39;;;;;;;4.15;3.70;;;;;;;;;;5209559;28;20481;-75
2023/04/30 12:14:11;;;;;;;3.58;3.25;;;;;;;;;;5210890;28;20103;-76
2023/04/30 12:16:44;;;;;;;3.75;2.72;;;;;;;;;;5210238;28;20112;-75
2023/04/30 12:19:16;;;;;;;4.53;3.30;;;;;;;;;;5210726;28;20526;-76
2023/04/30 12:21:48;;;;;;;3.65;3.05;;;;;;;;;;5211222;28;20024;-75
2023/04/30 12:24:19;;;;;;;4.68;2.45;;;;;;;;;;5210294;28;20010;-76
2023/04/30 12:26:52;;;;;;;5.47;3.60;;;;;;;;;;5210443;28;20017;-75
2023/04/30 12:29:24;;;;;;;7.63;3.60;;;;;;;;;;5210647;28;20022;-76
2023/04/30 12:31:56;;;;;;;4.10;3.25;;;;;;;;;;5210860;28;20029;-75
2023/04/30 12:34:28;;;;;;;3.70;3.15;;;;;;;;;;5210591;28;20016;-75
2023/04/30 12:37:00;;;;;;;5.05;2.83;;;;;;;;;;5211201;28;20845;-75
2023/04/30 12:39:35;;;;;;;3.13;2.40;;;;;;;;;;5312159;27;20017;-75
2023/04/30 12:42:07;;;;;;;3.25;2.53;;;;;;;;;;5208581;28;20155;-75
2023/04/30 12:44:43;;;;;;;5.90;2.75;;;;;;;;;;5210460;28;20105;-75
2023/04/30 12:47:15;;;;;;;2.97;2.38;;;;;;;;;;5210744;28;20014;-75
2023/04/30 12:49:46;;;;;;;5.22;3.08;;;;;;;;;;5210748;28;20108;-75
2023/04/30 12:52:22;;;;;;;3.30;2.60;;;;;;;;;;5210664;28;20536;-75
2023/04/30 12:54:54;;;;;;;4.15;2.33;;;;;;;;;;5210669;28;20029;-75
2023/04/30 12:57:25;;;;;;;2.60;1.98;;;;;;;;;;5209216;28;20029;-75
2023/04/30 12:59:58;;;;;;;4.40;2.38;;;;;;;;;;5210713;28;20074;-75
2023/04/30 13:02:30;;;;;;;3.42;2.28;;;;;;;;;;5210092;28;20059;-75
2023/04/30 13:05:02;;;;;;;2.10;1.90;;;;;;;;;;5210880;28;20022;-75
2023/04/30 13:07:39;;;;;;;3.13;2.20;;;;;;;;;;5208330;28;20093;-75
2023/04/30 13:10:11;;;;;;;3.00;2.70;;;;;;;;;;5210161;28;20017;-76
2023/04/30 13:12:42;;;;;;;3.22;2.92;;;;;;;;;;5209519;28;20029;-76
2023/04/30 13:15:13;;;;;;;2.45;1.95;;;;;;;;;;5210283;28;20374;-76
2023/04/30 13:17:44;;;;;;;3.60;2.60;;;;;;;;;;5209072;28;20034;-75
2023/04/30 13:20:16;;;;;;;4.80;2.50;;;;;;;;;;5210289;28;20029;-75
2023/04/30 13:22:47;;;;;;;4.13;2.60;;;;;;;;;;5210173;28;20017;-76
2023/04/30 13:25:18;;;;;;;3.47;2.20;;;;;;;;;;5210224;28;20018;-75
2023/04/30 13:27:50;;;;;;;3.15;2.17;;;;;;;;;;5207851;28;20022;-75
2023/04/30 13:30:22;;;;;;;2.85;2.58;;;;;;;;;;5209718;28;20036;-75
2023/04/30 13:32:53;;;;;;;3.55;2.40;;;;;;;;;;5209826;28;20050;-75
2023/04/30 13:35:24;;;;;;;3.78;2.60;;;;;;;;;;5208356;28;20104;-75
2023/04/30 13:37:57;;;;;;;3.22;2.42;;;;;;;;;;5209683;28;20469;-75
2023/04/30 13:40:29;;;;;;;4.25;2.05;;;;;;;;;;5208238;28;20037;-75
2023/04/30 13:43:00;;;;;;;3.60;2.25;;;;;;;;;;5209383;28;20033;-76
2023/04/30 13:45:31;;;;;;;2.67;2.40;;;;;;;;;;5209437;28;20108;-76
2023/04/30 13:48:02;;;;;;;5.45;2.15;;;;;;;;;;5209893;28;20020;-76
2023/04/30 13:50:33;;;;;;;2.70;2.20;;;;;;;;;;5209526;28;20427;-75
2023/04/30 13:53:05;;;;;;;3.33;2.10;;;;;;;;;;5310908;27;20600;-75
2023/04/30 13:55:36;;;;;;;3.63;2.70;;;;;;;;;;5209831;28;20026;-76
2023/04/30 13:58:07;;;;;;;2.92;2.00;;;;;;;;;;5208669;28;20465;-76
2023/04/30 14:00:38;;;;;;;5.25;2.67;;;;;;;;;;5209496;28;20026;-76
2023/04/30 14:03:10;;;;;;;2.38;1.73;;;;;;;;;;5209377;28;20022;-76
2023/04/30 14:05:41;;;;;;;2.30;1.90;;;;;;;;;;5209219;28;20342;-76
2023/04/30 14:08:12;;;;;;;3.05;2.53;;;;;;;;;;5208978;28;20049;-75
2023/04/30 14:10:43;;;;;;;2.75;1.92;;;;;;;;;;5208768;28;20028;-74
2023/04/30 14:13:15;;;;;;;3.60;2.85;;;;;;;;;;5311006;27;20053;-74
2023/04/30 14:15:46;;;;;;;2.78;2.35;;;;;;;;;;5209185;28;20018;-75
2023/04/30 14:18:21;;;;;;;2.80;2.25;;;;;;;;;;5209437;28;20389;-75
2023/04/30 14:20:52;;;;;;;2.85;2.08;;;;;;;;;;5208726;28;20132;-75
2023/04/30 14:23:24;;;;;;;3.15;2.20;;;;;;;;;;5209318;28;20101;-75
2023/04/30 14:25:56;;;;;;;4.07;2.20;;;;;;;;;;5208216;28;20022;-75
2023/04/30 14:28:27;;;;;;;2.97;2.10;;;;;;;;;;5210492;28;20024;-75
2023/04/30 14:30:58;;;;;;;2.58;1.90;;;;;;;;;;5212772;28;20159;-75
2023/04/30 14:33:30;;;;;;;2.67;1.95;;;;;;;;;;5212802;28;20057;-75
2023/04/30 14:36:01;;;;;;;2.58;1.95;;;;;;;;;;5212766;28;20037;-76
2023/04/30 14:38:32;;;;;;;4.30;2.47;;;;;;;;;;5212396;28;20047;-75
2023/04/30 14:41:03;;;;;;;3.38;2.25;;;;;;;;;;5211907;28;20480;-74
2023/04/30 14:43:36;;;;;;;3.60;2.40;;;;;;;;;;5212386;28;20026;-75
2023/04/30 14:46:07;;;;;;;3.13;1.77;;;;;;;;;;5212807;28;20136;-75
2023/04/30 14:48:38;;;;;;;2.70;2.03;;;;;;;;;;5212315;28;20118;-76
2023/04/30 14:51:09;;;;;;;2.63;1.98;;;;;;;;;;5212723;28;20489;-75
2023/04/30 14:53:41;;;;;;;3.20;2.20;;;;;;;;;;5211838;28;20030;-74
2023/04/30 14:56:12;;;;;;;14.40;2.70;;;;;;;;;;5211627;28;20082;-75
2023/04/30 14:58:43;;;;;;;4.60;2.45;;;;;;;;;;5212564;28;20026;-76
2023/04/30 15:01:14;;;;;;;2.27;1.80;;;;;;;;;;5211944;28;20057;-75
2023/04/30 15:03:45;;;;;;;3.37;2.27;;;;;;;;;;5212228;28;20052;-75